Time;durP1;ratioP1;P1;durP2;ratioP2;P2;SDS_P1;SDS_P2;PMS_P1;PMS_P2;Temp;Humidity;BMP_temperature;BMP_pressure;BME280_temperature;BME280_humidity;BME280_pressure;Samples;Min_cycle;Max_cycle;Signal;HPM_P1;HPM_P2
2022/03/26 00:00:00;;;;;;;25.6;20.0;;;;;;;9.8;100.0;102870;;;;
2022/03/26 00:01:01;;;;;;;25.6;20.0;;;;;;;9.8;100.0;102870;;;;
2022/03/26 00:02:00;;;;;;;25.6;20.0;;;;;;;9.8;100.0;102870;;;;
2022/03/26 00:03:00;;;;;;;25.6;20.0;;;;;;;9.7;100.0;102870;;;;
2022/03/26 00:04:00;;;;;;;25.6;20.0;;;;;;;9.7;100.0;102870;;;;
2022/03/26 00:05:00;;;;;;;25.6;20.0;;;;;;;9.7;100.0;102870;;;;
2022/03/26 00:06:00;;;;;;;25.6;20.0;;;;;;;9.7;100.0;102870;;;;
2022/03/26 00:07:00;;;;;;;25.6;20.0;;;;;;;9.7;100.0;102870;;;;
2022/03/26 00:08:00;;;;;;;25.6;20.0;;;;;;;9.7;100.0;102870;;;;
2022/03/26 00:09:00;;;;;;;25.6;20.0;;;;;;;9.7;100.0;102870;;;;
2022/03/26 00:10:00;;;;;;;25.6;20.0;;;;;;;9.7;100.0;102870;;;;
2022/03/26 00:11:00;;;;;;;25.6;20.0;;;;;;;9.7;100.0;102870;;;;
2022/03/26 00:12:00;;;;;;;25.6;20.0;;;;;;;9.7;100.0;102870;;;;
2022/03/26 00:13:00;;;;;;;25.1;19.1;;;;;;;9.7;100.0;102870;;;;
2022/03/26 00:14:00;;;;;;;25.1;19.1;;;;;;;9.7;100.0;102870;;;;
2022/03/26 00:15:00;;;;;;;25.1;19.1;;;;;;;9.7;100.0;102860;;;;
2022/03/26 00:16:01;;;;;;;25.1;19.1;;;;;;;9.7;100.0;102860;;;;
2022/03/26 00:17:00;;;;;;;25.1;19.1;;;;;;;9.6;100.0;102870;;;;
2022/03/26 00:18:00;;;;;;;25.1;19.1;;;;;;;9.6;100.0;102870;;;;
2022/03/26 00:19:00;;;;;;;25.1;19.1;;;;;;;9.6;100.0;102860;;;;
2022/03/26 00:20:00;;;;;;;25.1;19.1;;;;;;;9.6;100.0;102860;;;;
2022/03/26 00:21:00;;;;;;;25.1;19.1;;;;;;;9.6;100.0;102870;;;;
2022/03/26 00:22:00;;;;;;;25.1;19.1;;;;;;;9.6;100.0;102870;;;;
2022/03/26 00:23:00;;;;;;;25.1;19.1;;;;;;;9.6;100.0;102860;;;;
2022/03/26 00:24:00;;;;;;;25.1;19.1;;;;;;;9.6;100.0;102860;;;;
2022/03/26 00:25:00;;;;;;;25.1;19.1;;;;;;;9.5;100.0;102870;;;;
2022/03/26 00:26:00;;;;;;;25.1;19.1;;;;;;;9.5;100.0;102870;;;;
2022/03/26 00:27:00;;;;;;;25.1;19.1;;;;;;;9.5;100.0;102860;;;;
2022/03/26 00:28:00;;;;;;;25.1;19.1;;;;;;;9.5;100.0;102860;;;;
2022/03/26 00:29:00;;;;;;;25.1;19.1;;;;;;;9.5;100.0;102870;;;;
2022/03/26 00:30:02;;;;;;;25.1;19.1;;;;;;;9.5;100.0;102870;;;;
2022/03/26 00:31:00;;;;;;;25.1;19.1;;;;;;;9.4;100.0;102860;;;;
2022/03/26 00:32:02;;;;;;;27.2;19.7;;;;;;;9.4;100.0;102860;;;;
2022/03/26 00:33:00;;;;;;;27.2;19.7;;;;;;;9.5;100.0;102860;;;;
2022/03/26 00:34:00;;;;;;;27.2;19.7;;;;;;;9.5;100.0;102860;;;;
2022/03/26 00:35:00;;;;;;;27.2;19.7;;;;;;;9.4;100.0;102870;;;;
2022/03/26 00:36:00;;;;;;;27.2;19.7;;;;;;;9.4;100.0;102870;;;;
2022/03/26 00:37:00;;;;;;;27.2;19.7;;;;;;;9.3;100.0;102870;;;;
2022/03/26 00:38:00;;;;;;;27.2;19.7;;;;;;;9.3;100.0;102870;;;;
2022/03/26 00:39:00;;;;;;;27.2;19.7;;;;;;;9.3;100.0;102870;;;;
2022/03/26 00:40:00;;;;;;;27.2;19.7;;;;;;;9.3;100.0;102870;;;;
2022/03/26 00:41:00;;;;;;;27.2;19.7;;;;;;;9.3;100.0;102870;;;;
2022/03/26 00:42:00;;;;;;;27.2;19.7;;;;;;;9.3;100.0;102870;;;;
2022/03/26 00:43:00;;;;;;;27.2;19.7;;;;;;;9.3;100.0;102860;;;;
2022/03/26 00:44:01;;;;;;;27.2;19.7;;;;;;;9.3;100.0;102860;;;;
2022/03/26 00:45:00;;;;;;;27.2;19.7;;;;;;;9.3;100.0;102860;;;;
2022/03/26 00:46:00;;;;;;;27.2;19.7;;;;;;;9.3;100.0;102860;;;;
2022/03/26 00:47:00;;;;;;;27.2;19.7;;;;;;;9.3;100.0;102860;;;;
2022/03/26 00:48:00;;;;;;;27.2;19.7;;;;;;;9.3;100.0;102860;;;;
2022/03/26 00:49:00;;;;;;;27.2;19.7;;;;;;;9.3;100.0;102860;;;;
2022/03/26 00:50:00;;;;;;;27.2;19.7;;;;;;;9.3;100.0;102860;;;;
2022/03/26 00:51:00;;;;;;;27.2;19.7;;;;;;;9.4;100.0;102860;;;;
2022/03/26 00:52:00;;;;;;;25.1;20.1;;;;;;;9.4;100.0;102860;;;;
2022/03/26 00:53:00;;;;;;;25.1;20.1;;;;;;;9.2;100.0;102860;;;;
2022/03/26 00:54:00;;;;;;;25.1;20.1;;;;;;;9.2;100.0;102860;;;;
2022/03/26 00:55:00;;;;;;;25.1;20.1;;;;;;;9.2;100.0;102860;;;;
2022/03/26 00:56:00;;;;;;;25.1;20.1;;;;;;;9.2;100.0;102860;;;;
2022/03/26 00:57:00;;;;;;;25.1;20.1;;;;;;;9.2;100.0;102860;;;;
2022/03/26 00:58:00;;;;;;;25.1;20.1;;;;;;;9.2;100.0;102860;;;;
2022/03/26 00:59:00;;;;;;;25.1;20.1;;;;;;;9.2;100.0;102860;;;;
2022/03/26 01:00:00;;;;;;;25.1;20.1;;;;;;;9.2;100.0;102860;;;;
2022/03/26 01:01:00;;;;;;;25.1;20.1;;;;;;;9.2;100.0;102860;;;;
2022/03/26 01:02:00;;;;;;;25.1;20.1;;;;;;;9.2;100.0;102860;;;;
2022/03/26 01:03:02;;;;;;;25.1;20.1;;;;;;;9.2;100.0;102860;;;;
2022/03/26 01:04:00;;;;;;;25.1;20.1;;;;;;;9.2;100.0;102860;;;;
2022/03/26 01:05:00;;;;;;;25.1;20.1;;;;;;;9.2;100.0;102860;;;;
2022/03/26 01:06:00;;;;;;;25.1;20.1;;;;;;;9.2;100.0;102860;;;;
2022/03/26 01:07:00;;;;;;;25.1;20.1;;;;;;;9.0;100.0;102850;;;;
2022/03/26 01:08:00;;;;;;;25.1;20.1;;;;;;;9.0;100.0;102850;;;;
2022/03/26 01:09:00;;;;;;;25.1;20.1;;;;;;;9.0;100.0;102850;;;;
2022/03/26 01:10:00;;;;;;;25.1;20.1;;;;;;;9.0;100.0;102850;;;;
2022/03/26 01:11:00;;;;;;;25.1;20.1;;;;;;;8.9;100.0;102850;;;;
2022/03/26 01:12:00;;;;;;;26.4;19.8;;;;;;;8.9;100.0;102850;;;;
2022/03/26 01:13:00;;;;;;;26.4;19.8;;;;;;;8.9;100.0;102850;;;;
2022/03/26 01:14:00;;;;;;;26.4;19.8;;;;;;;8.9;100.0;102850;;;;
2022/03/26 01:15:00;;;;;;;26.4;19.8;;;;;;;8.9;100.0;102860;;;;
2022/03/26 01:16:01;;;;;;;26.4;19.8;;;;;;;8.9;100.0;102860;;;;
2022/03/26 01:17:00;;;;;;;26.4;19.8;;;;;;;8.9;100.0;102860;;;;
2022/03/26 01:18:00;;;;;;;26.4;19.8;;;;;;;8.9;100.0;102860;;;;
2022/03/26 01:19:00;;;;;;;26.4;19.8;;;;;;;8.9;100.0;102860;;;;
2022/03/26 01:20:00;;;;;;;26.4;19.8;;;;;;;8.9;100.0;102860;;;;
2022/03/26 01:21:00;;;;;;;26.4;19.8;;;;;;;8.9;100.0;102860;;;;
2022/03/26 01:22:00;;;;;;;26.4;19.8;;;;;;;8.9;100.0;102860;;;;
2022/03/26 01:23:00;;;;;;;26.4;19.8;;;;;;;8.8;100.0;102860;;;;
2022/03/26 01:24:00;;;;;;;26.4;19.8;;;;;;;8.8;100.0;102860;;;;
2022/03/26 01:25:00;;;;;;;26.4;19.8;;;;;;;8.8;100.0;102860;;;;
2022/03/26 01:26:00;;;;;;;26.4;19.8;;;;;;;8.8;100.0;102860;;;;
2022/03/26 01:27:00;;;;;;;26.4;19.8;;;;;;;8.8;100.0;102860;;;;
2022/03/26 01:28:00;;;;;;;26.4;19.8;;;;;;;8.8;100.0;102860;;;;
2022/03/26 01:29:00;;;;;;;26.4;19.8;;;;;;;8.9;100.0;102850;;;;
2022/03/26 01:30:00;;;;;;;26.4;19.8;;;;;;;8.9;100.0;102850;;;;
2022/03/26 01:31:00;;;;;;;26.4;19.8;;;;;;;8.9;100.0;102850;;;;
2022/03/26 01:32:00;;;;;;;25.9;19.6;;;;;;;8.9;100.0;102850;;;;
2022/03/26 01:33:00;;;;;;;25.9;19.6;;;;;;;8.8;100.0;102850;;;;
2022/03/26 01:34:00;;;;;;;25.9;19.6;;;;;;;8.8;100.0;102850;;;;
2022/03/26 01:35:00;;;;;;;25.9;19.6;;;;;;;8.7;100.0;102850;;;;
2022/03/26 01:36:00;;;;;;;25.9;19.6;;;;;;;8.7;100.0;102850;;;;
2022/03/26 01:37:02;;;;;;;25.9;19.6;;;;;;;8.6;100.0;102860;;;;
2022/03/26 01:38:01;;;;;;;25.9;19.6;;;;;;;8.6;100.0;102860;;;;
2022/03/26 01:39:00;;;;;;;25.9;19.6;;;;;;;8.6;100.0;102860;;;;
2022/03/26 01:40:00;;;;;;;25.9;19.6;;;;;;;8.6;100.0;102860;;;;
2022/03/26 01:41:00;;;;;;;25.9;19.6;;;;;;;8.5;100.0;102860;;;;
2022/03/26 01:42:01;;;;;;;25.9;19.6;;;;;;;8.5;100.0;102860;;;;
2022/03/26 01:43:00;;;;;;;25.9;19.6;;;;;;;8.5;100.0;102860;;;;
2022/03/26 01:44:00;;;;;;;25.9;19.6;;;;;;;8.5;100.0;102860;;;;
2022/03/26 01:45:00;;;;;;;25.9;19.6;;;;;;;8.5;100.0;102850;;;;
2022/03/26 01:46:00;;;;;;;25.9;19.6;;;;;;;8.5;100.0;102850;;;;
2022/03/26 01:47:00;;;;;;;25.9;19.6;;;;;;;8.6;100.0;102860;;;;
2022/03/26 01:48:00;;;;;;;25.9;19.6;;;;;;;8.6;100.0;102860;;;;
2022/03/26 01:49:00;;;;;;;25.9;19.6;;;;;;;8.5;100.0;102850;;;;
2022/03/26 01:50:00;;;;;;;25.9;19.6;;;;;;;8.5;100.0;102850;;;;
2022/03/26 01:51:14;;;;;;;25.9;19.6;;;;;;;8.6;100.0;102860;;;;
2022/03/26 01:52:01;;;;;;;28.3;19.0;;;;;;;8.6;100.0;102860;;;;
2022/03/26 01:53:00;;;;;;;28.3;19.0;;;;;;;8.8;100.0;102860;;;;
2022/03/26 01:54:01;;;;;;;28.3;19.0;;;;;;;8.8;100.0;102860;;;;
2022/03/26 01:55:00;;;;;;;28.3;19.0;;;;;;;8.7;100.0;102860;;;;
2022/03/26 01:56:00;;;;;;;28.3;19.0;;;;;;;8.7;100.0;102860;;;;
2022/03/26 01:57:00;;;;;;;28.3;19.0;;;;;;;8.6;100.0;102860;;;;
2022/03/26 01:58:02;;;;;;;28.3;19.0;;;;;;;8.6;100.0;102860;;;;
2022/03/26 01:59:01;;;;;;;28.3;19.0;;;;;;;8.5;100.0;102860;;;;
2022/03/26 02:00:00;;;;;;;28.3;19.0;;;;;;;8.5;100.0;102860;;;;
2022/03/26 02:01:00;;;;;;;28.3;19.0;;;;;;;8.6;100.0;102860;;;;
2022/03/26 02:02:00;;;;;;;28.3;19.0;;;;;;;8.6;100.0;102860;;;;
2022/03/26 02:03:00;;;;;;;28.3;19.0;;;;;;;8.5;100.0;102860;;;;
2022/03/26 02:04:01;;;;;;;28.3;19.0;;;;;;;8.5;100.0;102860;;;;
2022/03/26 02:05:00;;;;;;;28.3;19.0;;;;;;;8.4;100.0;102860;;;;
2022/03/26 02:06:00;;;;;;;28.3;19.0;;;;;;;8.4;100.0;102860;;;;
2022/03/26 02:07:01;;;;;;;28.3;19.0;;;;;;;8.3;100.0;102860;;;;
2022/03/26 02:08:01;;;;;;;28.3;19.0;;;;;;;8.3;100.0;102860;;;;
2022/03/26 02:09:02;;;;;;;28.3;19.0;;;;;;;8.3;100.0;102860;;;;
2022/03/26 02:10:00;;;;;;;28.3;19.0;;;;;;;8.3;100.0;102860;;;;
2022/03/26 02:11:01;;;;;;;28.3;19.0;;;;;;;8.3;100.0;102860;;;;
2022/03/26 02:12:00;;;;;;;28.2;19.4;;;;;;;8.3;100.0;102860;;;;
2022/03/26 02:13:00;;;;;;;28.2;19.4;;;;;;;8.4;100.0;102860;;;;
2022/03/26 02:14:02;;;;;;;28.2;19.4;;;;;;;8.4;100.0;102860;;;;
2022/03/26 02:15:00;;;;;;;28.2;19.4;;;;;;;8.3;100.0;102860;;;;
2022/03/26 02:16:00;;;;;;;28.2;19.4;;;;;;;8.3;100.0;102860;;;;
2022/03/26 02:17:00;;;;;;;28.2;19.4;;;;;;;8.2;100.0;102860;;;;
2022/03/26 02:18:00;;;;;;;28.2;19.4;;;;;;;8.2;100.0;102860;;;;
2022/03/26 02:19:00;;;;;;;28.2;19.4;;;;;;;8.4;100.0;102860;;;;
2022/03/26 02:20:00;;;;;;;28.2;19.4;;;;;;;8.4;100.0;102860;;;;
2022/03/26 02:21:00;;;;;;;28.2;19.4;;;;;;;8.3;100.0;102860;;;;
2022/03/26 02:22:00;;;;;;;28.2;19.4;;;;;;;8.3;100.0;102860;;;;
2022/03/26 02:23:01;;;;;;;28.2;19.4;;;;;;;8.3;100.0;102860;;;;
2022/03/26 02:24:02;;;;;;;28.2;19.4;;;;;;;8.3;100.0;102860;;;;
2022/03/26 02:25:00;;;;;;;28.2;19.4;;;;;;;8.4;100.0;102860;;;;
2022/03/26 02:26:00;;;;;;;28.2;19.4;;;;;;;8.4;100.0;102860;;;;
2022/03/26 02:27:00;;;;;;;28.2;19.4;;;;;;;8.2;100.0;102860;;;;
2022/03/26 02:28:00;;;;;;;28.2;19.4;;;;;;;8.2;100.0;102860;;;;
2022/03/26 02:29:04;;;;;;;28.2;19.4;;;;;;;8.2;100.0;102860;;;;
2022/03/26 02:30:00;;;;;;;28.2;19.4;;;;;;;8.2;100.0;102860;;;;
2022/03/26 02:31:00;;;;;;;28.2;19.4;;;;;;;8.2;100.0;102850;;;;
2022/03/26 02:32:01;;;;;;;28.8;20.1;;;;;;;8.2;100.0;102850;;;;
2022/03/26 02:33:00;;;;;;;28.8;20.1;;;;;;;8.2;100.0;102850;;;;
2022/03/26 02:34:00;;;;;;;28.8;20.1;;;;;;;8.2;100.0;102850;;;;
2022/03/26 02:35:02;;;;;;;28.8;20.1;;;;;;;8.3;100.0;102850;;;;
2022/03/26 02:36:00;;;;;;;28.8;20.1;;;;;;;8.3;100.0;102850;;;;
2022/03/26 02:37:00;;;;;;;28.8;20.1;;;;;;;8.2;100.0;102850;;;;
2022/03/26 02:38:00;;;;;;;28.8;20.1;;;;;;;8.2;100.0;102850;;;;
2022/03/26 02:39:00;;;;;;;28.8;20.1;;;;;;;8.3;100.0;102850;;;;
2022/03/26 02:40:00;;;;;;;28.8;20.1;;;;;;;8.3;100.0;102850;;;;
2022/03/26 02:41:00;;;;;;;28.8;20.1;;;;;;;8.1;100.0;102860;;;;
2022/03/26 02:42:00;;;;;;;28.8;20.1;;;;;;;8.1;100.0;102860;;;;
2022/03/26 02:43:00;;;;;;;28.8;20.1;;;;;;;8.1;100.0;102850;;;;
2022/03/26 02:44:00;;;;;;;28.8;20.1;;;;;;;8.1;100.0;102850;;;;
2022/03/26 02:45:00;;;;;;;28.8;20.1;;;;;;;8.0;100.0;102850;;;;
2022/03/26 02:46:00;;;;;;;28.8;20.1;;;;;;;8.0;100.0;102850;;;;
2022/03/26 02:47:00;;;;;;;28.8;20.1;;;;;;;8.1;100.0;102860;;;;
2022/03/26 02:48:00;;;;;;;28.8;20.1;;;;;;;8.1;100.0;102860;;;;
2022/03/26 02:49:00;;;;;;;28.8;20.1;;;;;;;8.1;100.0;102850;;;;
2022/03/26 02:50:00;;;;;;;28.8;20.1;;;;;;;8.1;100.0;102850;;;;
2022/03/26 02:51:00;;;;;;;28.8;20.1;;;;;;;8.1;100.0;102860;;;;
2022/03/26 02:52:00;;;;;;;28.2;20.3;;;;;;;8.1;100.0;102860;;;;
2022/03/26 02:53:00;;;;;;;28.2;20.3;;;;;;;8.1;100.0;102850;;;;
2022/03/26 02:54:00;;;;;;;28.2;20.3;;;;;;;8.1;100.0;102850;;;;
2022/03/26 02:55:00;;;;;;;28.2;20.3;;;;;;;8.0;100.0;102850;;;;
2022/03/26 02:56:00;;;;;;;28.2;20.3;;;;;;;8.0;100.0;102850;;;;
2022/03/26 02:57:00;;;;;;;28.2;20.3;;;;;;;8.0;100.0;102850;;;;
2022/03/26 02:58:00;;;;;;;28.2;20.3;;;;;;;8.0;100.0;102850;;;;
2022/03/26 02:59:00;;;;;;;28.2;20.3;;;;;;;8.0;100.0;102850;;;;
2022/03/26 03:00:00;;;;;;;28.2;20.3;;;;;;;8.0;100.0;102850;;;;
2022/03/26 03:01:00;;;;;;;28.2;20.3;;;;;;;7.9;100.0;102850;;;;
2022/03/26 03:02:00;;;;;;;28.2;20.3;;;;;;;7.9;100.0;102850;;;;
2022/03/26 03:03:00;;;;;;;28.2;20.3;;;;;;;8.0;100.0;102850;;;;
2022/03/26 03:04:00;;;;;;;28.2;20.3;;;;;;;8.0;100.0;102850;;;;
2022/03/26 03:05:01;;;;;;;28.2;20.3;;;;;;;8.0;100.0;102850;;;;
2022/03/26 03:06:00;;;;;;;28.2;20.3;;;;;;;8.0;100.0;102850;;;;
2022/03/26 03:07:00;;;;;;;28.2;20.3;;;;;;;7.9;100.0;102850;;;;
2022/03/26 03:08:00;;;;;;;28.2;20.3;;;;;;;7.9;100.0;102850;;;;
2022/03/26 03:09:00;;;;;;;28.2;20.3;;;;;;;7.9;100.0;102840;;;;
2022/03/26 03:10:00;;;;;;;28.2;20.3;;;;;;;7.9;100.0;102840;;;;
2022/03/26 03:11:00;;;;;;;28.2;20.3;;;;;;;7.9;100.0;102840;;;;
2022/03/26 03:12:00;;;;;;;28.5;19.7;;;;;;;7.9;100.0;102840;;;;
2022/03/26 03:13:00;;;;;;;28.5;19.7;;;;;;;7.9;100.0;102850;;;;
2022/03/26 03:14:00;;;;;;;28.5;19.7;;;;;;;7.9;100.0;102850;;;;
2022/03/26 03:15:00;;;;;;;28.5;19.7;;;;;;;7.7;100.0;102850;;;;
2022/03/26 03:16:00;;;;;;;28.5;19.7;;;;;;;7.7;100.0;102850;;;;
2022/03/26 03:17:00;;;;;;;28.5;19.7;;;;;;;7.8;100.0;102850;;;;
2022/03/26 03:18:00;;;;;;;28.5;19.7;;;;;;;7.8;100.0;102850;;;;
2022/03/26 03:19:00;;;;;;;28.5;19.7;;;;;;;7.6;100.0;102860;;;;
2022/03/26 03:20:00;;;;;;;28.5;19.7;;;;;;;7.6;100.0;102860;;;;
2022/03/26 03:21:00;;;;;;;28.5;19.7;;;;;;;7.6;100.0;102850;;;;
2022/03/26 03:22:00;;;;;;;28.5;19.7;;;;;;;7.6;100.0;102850;;;;
2022/03/26 03:23:00;;;;;;;28.5;19.7;;;;;;;7.6;100.0;102850;;;;
2022/03/26 03:24:00;;;;;;;28.5;19.7;;;;;;;7.6;100.0;102850;;;;
2022/03/26 03:25:00;;;;;;;28.5;19.7;;;;;;;7.6;100.0;102860;;;;
2022/03/26 03:26:00;;;;;;;28.5;19.7;;;;;;;7.6;100.0;102860;;;;
2022/03/26 03:27:00;;;;;;;28.5;19.7;;;;;;;7.6;100.0;102860;;;;
2022/03/26 03:28:00;;;;;;;28.5;19.7;;;;;;;7.6;100.0;102860;;;;
2022/03/26 03:29:00;;;;;;;28.5;19.7;;;;;;;7.6;100.0;102860;;;;
2022/03/26 03:30:00;;;;;;;28.5;19.7;;;;;;;7.6;100.0;102860;;;;
2022/03/26 03:31:00;;;;;;;28.5;19.7;;;;;;;7.6;100.0;102860;;;;
2022/03/26 03:32:00;;;;;;;26.6;20.2;;;;;;;7.6;100.0;102860;;;;
2022/03/26 03:33:00;;;;;;;26.6;20.2;;;;;;;7.5;100.0;102860;;;;
2022/03/26 03:34:00;;;;;;;26.6;20.2;;;;;;;7.5;100.0;102860;;;;
2022/03/26 03:35:00;;;;;;;26.6;20.2;;;;;;;7.5;100.0;102860;;;;
2022/03/26 03:36:00;;;;;;;26.6;20.2;;;;;;;7.5;100.0;102860;;;;
2022/03/26 03:37:00;;;;;;;26.6;20.2;;;;;;;7.5;100.0;102860;;;;
2022/03/26 03:38:00;;;;;;;26.6;20.2;;;;;;;7.5;100.0;102860;;;;
2022/03/26 03:39:00;;;;;;;26.6;20.2;;;;;;;7.5;100.0;102860;;;;
2022/03/26 03:40:00;;;;;;;26.6;20.2;;;;;;;7.5;100.0;102860;;;;
2022/03/26 03:41:00;;;;;;;26.6;20.2;;;;;;;7.5;100.0;102860;;;;
2022/03/26 03:42:00;;;;;;;26.6;20.2;;;;;;;7.5;100.0;102860;;;;
2022/03/26 03:43:05;;;;;;;26.6;20.2;;;;;;;7.3;100.0;102870;;;;
2022/03/26 03:44:02;;;;;;;26.6;20.2;;;;;;;7.3;100.0;102870;;;;
2022/03/26 03:45:00;;;;;;;26.6;20.2;;;;;;;7.4;100.0;102870;;;;
2022/03/26 03:46:00;;;;;;;26.6;20.2;;;;;;;7.4;100.0;102870;;;;
2022/03/26 03:47:00;;;;;;;26.6;20.2;;;;;;;7.4;100.0;102870;;;;
2022/03/26 03:48:00;;;;;;;26.6;20.2;;;;;;;7.4;100.0;102870;;;;
2022/03/26 03:49:00;;;;;;;26.6;20.2;;;;;;;7.4;100.0;102860;;;;
2022/03/26 03:50:00;;;;;;;26.6;20.2;;;;;;;7.4;100.0;102860;;;;
2022/03/26 03:51:00;;;;;;;26.6;20.2;;;;;;;7.3;100.0;102860;;;;
2022/03/26 03:52:00;;;;;;;27.5;21.1;;;;;;;7.3;100.0;102860;;;;
2022/03/26 03:53:00;;;;;;;27.5;21.1;;;;;;;7.3;100.0;102860;;;;
2022/03/26 03:54:00;;;;;;;27.5;21.1;;;;;;;7.3;100.0;102860;;;;
2022/03/26 03:55:00;;;;;;;27.5;21.1;;;;;;;7.4;100.0;102860;;;;
2022/03/26 03:56:00;;;;;;;27.5;21.1;;;;;;;7.4;100.0;102860;;;;
2022/03/26 03:57:00;;;;;;;27.5;21.1;;;;;;;7.3;100.0;102860;;;;
2022/03/26 03:58:00;;;;;;;27.5;21.1;;;;;;;7.3;100.0;102860;;;;
2022/03/26 03:59:00;;;;;;;27.5;21.1;;;;;;;7.3;100.0;102860;;;;
2022/03/26 04:00:00;;;;;;;27.5;21.1;;;;;;;7.3;100.0;102860;;;;
2022/03/26 04:01:00;;;;;;;27.5;21.1;;;;;;;7.3;100.0;102860;;;;
2022/03/26 04:02:00;;;;;;;27.5;21.1;;;;;;;7.3;100.0;102860;;;;
2022/03/26 04:03:00;;;;;;;27.5;21.1;;;;;;;7.4;100.0;102870;;;;
2022/03/26 04:04:00;;;;;;;27.5;21.1;;;;;;;7.4;100.0;102870;;;;
2022/03/26 04:05:00;;;;;;;27.5;21.1;;;;;;;7.4;100.0;102870;;;;
2022/03/26 04:06:00;;;;;;;27.5;21.1;;;;;;;7.4;100.0;102870;;;;
2022/03/26 04:07:00;;;;;;;27.5;21.1;;;;;;;7.3;100.0;102870;;;;
2022/03/26 04:08:00;;;;;;;27.5;21.1;;;;;;;7.3;100.0;102870;;;;
2022/03/26 04:09:00;;;;;;;27.5;21.1;;;;;;;7.2;100.0;102860;;;;
2022/03/26 04:10:00;;;;;;;27.5;21.1;;;;;;;7.2;100.0;102860;;;;
2022/03/26 04:11:00;;;;;;;27.5;21.1;;;;;;;7.3;100.0;102870;;;;
2022/03/26 04:12:00;;;;;;;26.3;20.6;;;;;;;7.3;100.0;102870;;;;
2022/03/26 04:13:00;;;;;;;26.3;20.6;;;;;;;7.3;100.0;102870;;;;
2022/03/26 04:14:00;;;;;;;26.3;20.6;;;;;;;7.3;100.0;102870;;;;
2022/03/26 04:15:00;;;;;;;26.3;20.6;;;;;;;7.3;100.0;102870;;;;
2022/03/26 04:16:00;;;;;;;26.3;20.6;;;;;;;7.3;100.0;102870;;;;
2022/03/26 04:17:00;;;;;;;26.3;20.6;;;;;;;7.2;100.0;102870;;;;
2022/03/26 04:18:01;;;;;;;26.3;20.6;;;;;;;7.2;100.0;102870;;;;
2022/03/26 04:19:00;;;;;;;26.3;20.6;;;;;;;7.1;100.0;102870;;;;
2022/03/26 04:20:01;;;;;;;26.3;20.6;;;;;;;7.1;100.0;102870;;;;
2022/03/26 04:21:00;;;;;;;26.3;20.6;;;;;;;7.1;100.0;102870;;;;
2022/03/26 04:22:00;;;;;;;26.3;20.6;;;;;;;7.1;100.0;102870;;;;
2022/03/26 04:23:00;;;;;;;26.3;20.6;;;;;;;7.0;100.0;102870;;;;
2022/03/26 04:24:00;;;;;;;26.3;20.6;;;;;;;7.0;100.0;102870;;;;
2022/03/26 04:25:00;;;;;;;26.3;20.6;;;;;;;7.1;100.0;102870;;;;
2022/03/26 04:26:00;;;;;;;26.3;20.6;;;;;;;7.1;100.0;102870;;;;
2022/03/26 04:27:00;;;;;;;26.3;20.6;;;;;;;7.1;100.0;102870;;;;
2022/03/26 04:28:00;;;;;;;26.3;20.6;;;;;;;7.1;100.0;102870;;;;
2022/03/26 04:29:01;;;;;;;26.3;20.6;;;;;;;7.1;100.0;102870;;;;
2022/03/26 04:30:00;;;;;;;26.3;20.6;;;;;;;7.1;100.0;102870;;;;
2022/03/26 04:31:00;;;;;;;26.3;20.6;;;;;;;7.0;100.0;102880;;;;
2022/03/26 04:32:00;;;;;;;29.8;20.9;;;;;;;7.0;100.0;102880;;;;
2022/03/26 04:33:00;;;;;;;29.8;20.9;;;;;;;7.0;100.0;102880;;;;
2022/03/26 04:34:01;;;;;;;29.8;20.9;;;;;;;7.0;100.0;102880;;;;
2022/03/26 04:35:00;;;;;;;29.8;20.9;;;;;;;7.1;100.0;102880;;;;
2022/03/26 04:36:00;;;;;;;29.8;20.9;;;;;;;7.1;100.0;102880;;;;
2022/03/26 04:37:00;;;;;;;29.8;20.9;;;;;;;7.0;100.0;102870;;;;
2022/03/26 04:38:00;;;;;;;29.8;20.9;;;;;;;7.0;100.0;102870;;;;
2022/03/26 04:39:00;;;;;;;29.8;20.9;;;;;;;6.9;100.0;102880;;;;
2022/03/26 04:40:00;;;;;;;29.8;20.9;;;;;;;6.9;100.0;102880;;;;
2022/03/26 04:41:00;;;;;;;29.8;20.9;;;;;;;7.0;100.0;102880;;;;
2022/03/26 04:42:00;;;;;;;29.8;20.9;;;;;;;7.0;100.0;102880;;;;
2022/03/26 04:43:00;;;;;;;29.8;20.9;;;;;;;6.9;100.0;102880;;;;
2022/03/26 04:44:00;;;;;;;29.8;20.9;;;;;;;6.9;100.0;102880;;;;
2022/03/26 04:45:00;;;;;;;29.8;20.9;;;;;;;6.8;100.0;102870;;;;
2022/03/26 04:46:00;;;;;;;29.8;20.9;;;;;;;6.8;100.0;102870;;;;
2022/03/26 04:47:00;;;;;;;29.8;20.9;;;;;;;6.8;100.0;102870;;;;
2022/03/26 04:48:00;;;;;;;29.8;20.9;;;;;;;6.8;100.0;102870;;;;
2022/03/26 04:49:00;;;;;;;29.8;20.9;;;;;;;6.8;100.0;102870;;;;
2022/03/26 04:50:00;;;;;;;29.8;20.9;;;;;;;6.8;100.0;102870;;;;
2022/03/26 04:51:00;;;;;;;28.5;21.7;;;;;;;6.8;100.0;102870;;;;
2022/03/26 04:52:00;;;;;;;28.5;21.7;;;;;;;6.8;100.0;102870;;;;
2022/03/26 04:53:00;;;;;;;28.5;21.7;;;;;;;6.8;100.0;102870;;;;
2022/03/26 04:54:00;;;;;;;28.5;21.7;;;;;;;6.8;100.0;102870;;;;
2022/03/26 04:55:00;;;;;;;28.5;21.7;;;;;;;6.9;100.0;102880;;;;
2022/03/26 04:56:00;;;;;;;28.5;21.7;;;;;;;6.9;100.0;102880;;;;
2022/03/26 04:57:00;;;;;;;28.5;21.7;;;;;;;6.9;100.0;102870;;;;
2022/03/26 04:58:00;;;;;;;28.5;21.7;;;;;;;6.9;100.0;102870;;;;
2022/03/26 04:59:00;;;;;;;28.5;21.7;;;;;;;6.9;100.0;102880;;;;
2022/03/26 05:00:00;;;;;;;28.5;21.7;;;;;;;6.9;100.0;102880;;;;
2022/03/26 05:01:00;;;;;;;28.5;21.7;;;;;;;6.8;100.0;102880;;;;
2022/03/26 05:02:00;;;;;;;28.5;21.7;;;;;;;6.8;100.0;102880;;;;
2022/03/26 05:03:00;;;;;;;28.5;21.7;;;;;;;6.7;100.0;102880;;;;
2022/03/26 05:04:00;;;;;;;28.5;21.7;;;;;;;6.7;100.0;102880;;;;
2022/03/26 05:05:00;;;;;;;28.5;21.7;;;;;;;6.7;100.0;102880;;;;
2022/03/26 05:06:00;;;;;;;28.5;21.7;;;;;;;6.7;100.0;102880;;;;
2022/03/26 05:07:00;;;;;;;28.5;21.7;;;;;;;6.7;100.0;102880;;;;
2022/03/26 05:08:00;;;;;;;28.5;21.7;;;;;;;6.7;100.0;102880;;;;
2022/03/26 05:09:00;;;;;;;28.5;21.7;;;;;;;6.7;100.0;102880;;;;
2022/03/26 05:10:00;;;;;;;28.5;21.7;;;;;;;6.7;100.0;102880;;;;
2022/03/26 05:11:00;;;;;;;28.9;22.2;;;;;;;6.7;100.0;102880;;;;
2022/03/26 05:12:00;;;;;;;28.9;22.2;;;;;;;6.7;100.0;102880;;;;
2022/03/26 05:13:00;;;;;;;28.9;22.2;;;;;;;6.8;100.0;102880;;;;
2022/03/26 05:14:00;;;;;;;28.9;22.2;;;;;;;6.8;100.0;102880;;;;
2022/03/26 05:15:00;;;;;;;28.9;22.2;;;;;;;6.7;100.0;102880;;;;
2022/03/26 05:16:02;;;;;;;28.9;22.2;;;;;;;6.7;100.0;102880;;;;
2022/03/26 05:17:00;;;;;;;28.9;22.2;;;;;;;6.7;100.0;102890;;;;
2022/03/26 05:18:00;;;;;;;28.9;22.2;;;;;;;6.7;100.0;102890;;;;
2022/03/26 05:19:00;;;;;;;28.9;22.2;;;;;;;6.7;100.0;102880;;;;
2022/03/26 05:20:00;;;;;;;28.9;22.2;;;;;;;6.7;100.0;102880;;;;
2022/03/26 05:21:00;;;;;;;28.9;22.2;;;;;;;6.7;100.0;102880;;;;
2022/03/26 05:22:00;;;;;;;28.9;22.2;;;;;;;6.7;100.0;102880;;;;
2022/03/26 05:23:02;;;;;;;28.9;22.2;;;;;;;6.6;100.0;102890;;;;
2022/03/26 05:24:00;;;;;;;28.9;22.2;;;;;;;6.6;100.0;102890;;;;
2022/03/26 05:25:00;;;;;;;28.9;22.2;;;;;;;6.5;100.0;102890;;;;
2022/03/26 05:26:00;;;;;;;28.9;22.2;;;;;;;6.5;100.0;102890;;;;
2022/03/26 05:27:00;;;;;;;28.9;22.2;;;;;;;6.6;100.0;102890;;;;
2022/03/26 05:28:00;;;;;;;28.9;22.2;;;;;;;6.6;100.0;102890;;;;
2022/03/26 05:29:00;;;;;;;28.9;22.2;;;;;;;6.6;100.0;102890;;;;
2022/03/26 05:30:00;;;;;;;28.9;22.2;;;;;;;6.6;100.0;102890;;;;
2022/03/26 05:31:00;;;;;;;29.5;21.8;;;;;;;6.6;100.0;102900;;;;
2022/03/26 05:32:00;;;;;;;29.5;21.8;;;;;;;6.6;100.0;102900;;;;
2022/03/26 05:33:00;;;;;;;29.5;21.8;;;;;;;6.7;100.0;102900;;;;
2022/03/26 05:34:00;;;;;;;29.5;21.8;;;;;;;6.7;100.0;102900;;;;
2022/03/26 05:35:00;;;;;;;29.5;21.8;;;;;;;6.7;100.0;102900;;;;
2022/03/26 05:36:00;;;;;;;29.5;21.8;;;;;;;6.7;100.0;102900;;;;
2022/03/26 05:37:00;;;;;;;29.5;21.8;;;;;;;6.6;100.0;102900;;;;
2022/03/26 05:38:00;;;;;;;29.5;21.8;;;;;;;6.6;100.0;102900;;;;
2022/03/26 05:39:00;;;;;;;29.5;21.8;;;;;;;6.5;100.0;102900;;;;
2022/03/26 05:40:00;;;;;;;29.5;21.8;;;;;;;6.5;100.0;102900;;;;
2022/03/26 05:41:00;;;;;;;29.5;21.8;;;;;;;6.6;100.0;102900;;;;
2022/03/26 05:42:00;;;;;;;29.5;21.8;;;;;;;6.6;100.0;102900;;;;
2022/03/26 05:43:00;;;;;;;29.5;21.8;;;;;;;6.6;100.0;102900;;;;
2022/03/26 05:44:00;;;;;;;29.5;21.8;;;;;;;6.6;100.0;102900;;;;
2022/03/26 05:45:00;;;;;;;29.5;21.8;;;;;;;6.7;100.0;102900;;;;
2022/03/26 05:46:00;;;;;;;29.5;21.8;;;;;;;6.7;100.0;102900;;;;
2022/03/26 05:47:00;;;;;;;29.5;21.8;;;;;;;6.6;100.0;102900;;;;
2022/03/26 05:48:02;;;;;;;29.5;21.8;;;;;;;6.6;100.0;102900;;;;
2022/03/26 05:49:00;;;;;;;29.5;21.8;;;;;;;6.6;100.0;102900;;;;
2022/03/26 05:50:00;;;;;;;29.5;21.8;;;;;;;6.6;100.0;102900;;;;
2022/03/26 05:51:00;;;;;;;32.5;24.3;;;;;;;6.6;100.0;102900;;;;
2022/03/26 05:52:00;;;;;;;32.5;24.3;;;;;;;6.6;100.0;102900;;;;
2022/03/26 05:53:01;;;;;;;32.5;24.3;;;;;;;6.7;100.0;102900;;;;
2022/03/26 05:54:00;;;;;;;32.5;24.3;;;;;;;6.7;100.0;102900;;;;
2022/03/26 05:55:00;;;;;;;32.5;24.3;;;;;;;6.7;100.0;102900;;;;
2022/03/26 05:56:00;;;;;;;32.5;24.3;;;;;;;6.7;100.0;102900;;;;
2022/03/26 05:57:00;;;;;;;32.5;24.3;;;;;;;6.7;100.0;102900;;;;
2022/03/26 05:58:00;;;;;;;32.5;24.3;;;;;;;6.7;100.0;102900;;;;
2022/03/26 05:59:00;;;;;;;32.5;24.3;;;;;;;6.7;100.0;102900;;;;
2022/03/26 06:00:00;;;;;;;32.5;24.3;;;;;;;6.7;100.0;102900;;;;
2022/03/26 06:01:00;;;;;;;32.5;24.3;;;;;;;6.8;100.0;102910;;;;
2022/03/26 06:02:00;;;;;;;32.5;24.3;;;;;;;6.8;100.0;102910;;;;
2022/03/26 06:03:00;;;;;;;32.5;24.3;;;;;;;6.8;100.0;102910;;;;
2022/03/26 06:04:00;;;;;;;32.5;24.3;;;;;;;6.8;100.0;102910;;;;
2022/03/26 06:05:00;;;;;;;32.5;24.3;;;;;;;6.7;100.0;102910;;;;
2022/03/26 06:06:00;;;;;;;32.5;24.3;;;;;;;6.7;100.0;102910;;;;
2022/03/26 06:07:00;;;;;;;32.5;24.3;;;;;;;6.7;100.0;102910;;;;
2022/03/26 06:08:00;;;;;;;32.5;24.3;;;;;;;6.7;100.0;102910;;;;
2022/03/26 06:09:00;;;;;;;32.5;24.3;;;;;;;6.8;100.0;102910;;;;
2022/03/26 06:10:00;;;;;;;32.5;24.3;;;;;;;6.8;100.0;102910;;;;
2022/03/26 06:11:00;;;;;;;33.1;24.6;;;;;;;6.8;100.0;102920;;;;
2022/03/26 06:12:00;;;;;;;33.1;24.6;;;;;;;6.8;100.0;102920;;;;
2022/03/26 06:13:00;;;;;;;33.1;24.6;;;;;;;6.8;100.0;102920;;;;
2022/03/26 06:14:00;;;;;;;33.1;24.6;;;;;;;6.8;100.0;102920;;;;
2022/03/26 06:15:00;;;;;;;33.1;24.6;;;;;;;6.8;100.0;102920;;;;
2022/03/26 06:16:00;;;;;;;33.1;24.6;;;;;;;6.8;100.0;102920;;;;